sensor_id;sensor_type;location;lat;lon;timestamp;pressure;altitude;pressure_sealevel;temperature;humidity
75424;BME280;64005;55.160;36.002;2023-03-14T00:01:20;98661.41;;;-2.46;74.46
75424;BME280;64005;55.160;36.002;2023-03-14T00:03:49;98666.63;;;-2.39;74.84
75424;BME280;64005;55.160;36.002;2023-03-14T00:06:18;98655.47;;;-2.38;75.06
75424;BME280;64005;55.160;36.002;2023-03-14T00:08:45;98659.03;;;-2.32;75.10
75424;BME280;64005;55.160;36.002;2023-03-14T00:11:19;98610.16;;;-2.54;76.18
75424;BME280;64005;55.160;36.002;2023-03-14T00:13:47;98634.84;;;-2.24;75.85
75424;BME280;64005;55.160;36.002;2023-03-14T00:16:15;98648.00;;;-2.16;75.72
75424;BME280;64005;55.160;36.002;2023-03-14T00:18:42;98624.03;;;-2.14;75.37
75424;BME280;64005;55.160;36.002;2023-03-14T00:21:12;98622.72;;;-2.06;75.49
75424;BME280;64005;55.160;36.002;2023-03-14T00:23:41;98582.81;;;-2.27;75.23
75424;BME280;64005;55.160;36.002;2023-03-14T00:26:10;98616.75;;;-2.03;75.92
75424;BME280;64005;55.160;36.002;2023-03-14T00:28:40;98604.22;;;-1.99;75.70
75424;BME280;64005;55.160;36.002;2023-03-14T00:31:09;98609.41;;;-1.92;76.14
75424;BME280;64005;55.160;36.002;2023-03-14T00:33:37;98600.22;;;-1.86;75.68
75424;BME280;64005;55.160;36.002;2023-03-14T00:36:06;98603.22;;;-1.83;76.33
75424;BME280;64005;55.160;36.002;2023-03-14T00:38:37;98599.16;;;-1.80;76.41
75424;BME280;64005;55.160;36.002;2023-03-14T00:41:08;98581.66;;;-1.84;76.57
75424;BME280;64005;55.160;36.002;2023-03-14T00:43:36;98592.88;;;-1.76;77.19
75424;BME280;64005;55.160;36.002;2023-03-14T00:46:04;98593.72;;;-1.70;76.43
75424;BME280;64005;55.160;36.002;2023-03-14T00:48:32;98600.56;;;-1.68;76.71
75424;BME280;64005;55.160;36.002;2023-03-14T00:51:00;98578.19;;;-1.65;76.67
75424;BME280;64005;55.160;36.002;2023-03-14T00:53:28;98574.13;;;-1.62;77.10
75424;BME280;64005;55.160;36.002;2023-03-14T00:56:01;98573.03;;;-1.61;77.24
75424;BME280;64005;55.160;36.002;2023-03-14T00:58:29;98563.50;;;-1.58;76.97
75424;BME280;64005;55.160;36.002;2023-03-14T01:00:57;98559.41;;;-1.56;77.15
75424;BME280;64005;55.160;36.002;2023-03-14T01:03:24;98568.16;;;-1.54;77.27
75424;BME280;64005;55.160;36.002;2023-03-14T01:05:52;98553.97;;;-1.56;77.99
75424;BME280;64005;55.160;36.002;2023-03-14T01:08:19;98557.50;;;-1.50;77.40
75424;BME280;64005;55.160;36.002;2023-03-14T01:10:47;98553.44;;;-1.48;77.44
75424;BME280;64005;55.160;36.002;2023-03-14T01:13:16;98548.81;;;-1.47;77.14
75424;BME280;64005;55.160;36.002;2023-03-14T01:15:43;98539.25;;;-1.45;77.29
75424;BME280;64005;55.160;36.002;2023-03-14T01:18:11;98546.91;;;-1.37;77.91
75424;BME280;64005;55.160;36.002;2023-03-14T01:20:38;98551.03;;;-1.34;77.43
75424;BME280;64005;55.160;36.002;2023-03-14T01:23:05;98530.00;;;-1.34;78.29
75424;BME280;64005;55.160;36.002;2023-03-14T01:25:33;98524.00;;;-1.31;77.46
75424;BME280;64005;55.160;36.002;2023-03-14T01:28:00;98524.28;;;-1.27;77.68
75424;BME280;64005;55.160;36.002;2023-03-14T01:30:29;98530.28;;;-1.25;77.64
75424;BME280;64005;55.160;36.002;2023-03-14T01:32:57;98516.63;;;-1.25;78.14
75424;BME280;64005;55.160;36.002;2023-03-14T01:35:24;98515.28;;;-1.23;77.63
75424;BME280;64005;55.160;36.002;2023-03-14T01:37:52;98513.13;;;-1.21;78.46
75424;BME280;64005;55.160;36.002;2023-03-14T01:40:20;98511.72;;;-1.18;78.71
75424;BME280;64005;55.160;36.002;2023-03-14T01:42:54;98528.41;;;-1.14;77.93
75424;BME280;64005;55.160;36.002;2023-03-14T01:48:32;98518.56;;;-1.10;78.11
75424;BME280;64005;55.160;36.002;2023-03-14T01:51:01;98511.19;;;-1.10;78.74
75424;BME280;64005;55.160;36.002;2023-03-14T01:53:29;98493.16;;;-1.06;78.81
75424;BME280;64005;55.160;36.002;2023-03-14T01:55:57;98480.63;;;-1.07;78.72
75424;BME280;64005;55.160;36.002;2023-03-14T01:58:26;98475.44;;;-1.03;78.88
75424;BME280;64005;55.160;36.002;2023-03-14T02:00:56;98489.09;;;-1.03;79.33
75424;BME280;64005;55.160;36.002;2023-03-14T02:03:28;98479.25;;;-1.04;78.99
75424;BME280;64005;55.160;36.002;2023-03-14T02:05:59;98480.34;;;-0.90;78.08
75424;BME280;64005;55.160;36.002;2023-03-14T02:08:30;98473.53;;;-0.88;77.88
75424;BME280;64005;55.160;36.002;2023-03-14T02:10:58;98480.06;;;-0.84;78.33
75424;BME280;64005;55.160;36.002;2023-03-14T02:13:26;98487.72;;;-0.81;77.95
75424;BME280;64005;55.160;36.002;2023-03-14T02:15:53;98473.75;;;-0.79;77.87
75424;BME280;64005;55.160;36.002;2023-03-14T02:18:21;98468.84;;;-0.77;78.43
75424;BME280;64005;55.160;36.002;2023-03-14T02:20:54;98456.03;;;-0.82;78.63
75424;BME280;64005;55.160;36.002;2023-03-14T02:23:31;98450.03;;;-0.84;78.15
75424;BME280;64005;55.160;36.002;2023-03-14T02:26:03;98450.56;;;-0.76;78.57
75424;BME280;64005;55.160;36.002;2023-03-14T02:28:34;98478.94;;;-0.67;78.35
75424;BME280;64005;55.160;36.002;2023-03-14T02:31:02;98472.38;;;-0.66;78.87
75424;BME280;64005;55.160;36.002;2023-03-14T02:33:30;98467.19;;;-0.63;78.71
75424;BME280;64005;55.160;36.002;2023-03-14T02:36:00;98484.41;;;-0.62;78.74
75424;BME280;64005;55.160;36.002;2023-03-14T02:38:32;98464.47;;;-0.63;78.41
75424;BME280;64005;55.160;36.002;2023-03-14T02:41:01;98459.78;;;-0.57;78.76
75424;BME280;64005;55.160;36.002;2023-03-14T02:43:29;98461.16;;;-0.55;78.07
75424;BME280;64005;55.160;36.002;2023-03-14T02:45:58;98463.06;;;-0.50;78.64
75424;BME280;64005;55.160;36.002;2023-03-14T02:48:30;98452.41;;;-0.57;79.45
75424;BME280;64005;55.160;36.002;2023-03-14T02:51:01;98452.41;;;-0.47;78.42
75424;BME280;64005;55.160;36.002;2023-03-14T02:53:30;98441.72;;;-0.43;78.29
75424;BME280;64005;55.160;36.002;2023-03-14T02:55:59;98432.16;;;-0.41;78.62
75424;BME280;64005;55.160;36.002;2023-03-14T02:58:27;98413.31;;;-0.42;78.80
75424;BME280;64005;55.160;36.002;2023-03-14T03:00:56;98416.84;;;-0.36;79.13
75424;BME280;64005;55.160;36.002;2023-03-14T03:03:24;98417.63;;;-0.31;79.13
75424;BME280;64005;55.160;36.002;2023-03-14T03:05:53;98366.66;;;-0.56;79.08
75424;BME280;64005;55.160;36.002;2023-03-14T03:08:22;98405.06;;;-0.27;79.09
75424;BME280;64005;55.160;36.002;2023-03-14T03:10:51;98396.28;;;-0.24;79.57
75424;BME280;64005;55.160;36.002;2023-03-14T03:13:19;98362.22;;;-0.42;78.28
75424;BME280;64005;55.160;36.002;2023-03-14T03:15:47;98371.97;;;-0.25;79.10
75424;BME280;64005;55.160;36.002;2023-03-14T03:18:16;98379.03;;;-0.19;79.68
75424;BME280;64005;55.160;36.002;2023-03-14T03:20:43;98389.13;;;-0.15;79.29
75424;BME280;64005;55.160;36.002;2023-03-14T03:23:11;98383.63;;;-0.10;79.70
75424;BME280;64005;55.160;36.002;2023-03-14T03:25:39;98378.72;;;-0.08;79.59
75424;BME280;64005;55.160;36.002;2023-03-14T03:28:06;98389.88;;;-0.04;78.51
75424;BME280;64005;55.160;36.002;2023-03-14T03:30:38;98366.38;;;-0.05;78.65
75424;BME280;64005;55.160;36.002;2023-03-14T03:33:05;98371.84;;;0.00;78.98
75424;BME280;64005;55.160;36.002;2023-03-14T03:35:34;98364.97;;;0.03;79.28
75424;BME280;64005;55.160;36.002;2023-03-14T03:38:02;98355.66;;;0.04;78.70
75424;BME280;64005;55.160;36.002;2023-03-14T03:40:29;98358.38;;;0.09;79.72
75424;BME280;64005;55.160;36.002;2023-03-14T03:42:57;98365.75;;;0.13;78.76
75424;BME280;64005;55.160;36.002;2023-03-14T03:45:24;98377.19;;;0.15;79.58
75424;BME280;64005;55.160;36.002;2023-03-14T03:47:52;98381.81;;;0.20;79.15
75424;BME280;64005;55.160;36.002;2023-03-14T03:50:19;98379.31;;;0.23;78.97
75424;BME280;64005;55.160;36.002;2023-03-14T03:52:48;98383.13;;;0.27;79.59
75424;BME280;64005;55.160;36.002;2023-03-14T03:55:16;98359.03;;;0.29;79.59
75424;BME280;64005;55.160;36.002;2023-03-14T03:57:43;98368.59;;;0.32;79.43
75424;BME280;64005;55.160;36.002;2023-03-14T04:00:11;98375.41;;;0.34;79.47
75424;BME280;64005;55.160;36.002;2023-03-14T04:02:39;98380.03;;;0.39;80.01
75424;BME280;64005;55.160;36.002;2023-03-14T04:05:10;98387.66;;;0.42;79.39
75424;BME280;64005;55.160;36.002;2023-03-14T04:07:37;98386.28;;;0.45;79.73
75424;BME280;64005;55.160;36.002;2023-03-14T04:10:07;98367.63;;;0.47;78.84
75424;BME280;64005;55.160;36.002;2023-03-14T04:12:35;98370.63;;;0.50;79.33
75424;BME280;64005;55.160;36.002;2023-03-14T04:15:03;98346.56;;;0.52;79.67
75424;BME280;64005;55.160;36.002;2023-03-14T04:17:31;98343.81;;;0.52;79.20
75424;BME280;64005;55.160;36.002;2023-03-14T04:19:58;98351.97;;;0.57;79.69
75424;BME280;64005;55.160;36.002;2023-03-14T04:22:26;98328.38;;;0.61;79.02
75424;BME280;64005;55.160;36.002;2023-03-14T04:24:53;98306.56;;;0.56;79.55
75424;BME280;64005;55.160;36.002;2023-03-14T04:27:22;98325.91;;;0.65;80.19
75424;BME280;64005;55.160;36.002;2023-03-14T04:29:50;98332.97;;;0.71;79.85
75424;BME280;64005;55.160;36.002;2023-03-14T04:32:17;98333.19;;;0.74;80.18
75424;BME280;64005;55.160;36.002;2023-03-14T04:34:45;98317.03;;;0.78;79.72
75424;BME280;64005;55.160;36.002;2023-03-14T04:37:12;98321.63;;;0.83;79.37
75424;BME280;64005;55.160;36.002;2023-03-14T04:39:40;98321.06;;;0.86;79.44
75424;BME280;64005;55.160;36.002;2023-03-14T04:42:07;98323.47;;;0.87;79.44
75424;BME280;64005;55.160;36.002;2023-03-14T04:44:36;98313.88;;;0.90;79.54
75424;BME280;64005;55.160;36.002;2023-03-14T04:47:04;98317.97;;;0.92;80.18
75424;BME280;64005;55.160;36.002;2023-03-14T04:49:32;98314.91;;;0.94;79.52
75424;BME280;64005;55.160;36.002;2023-03-14T04:51:59;98319.28;;;0.95;79.65
75424;BME280;64005;55.160;36.002;2023-03-14T04:54:27;98314.81;;;1.04;80.05
75424;BME280;64005;55.160;36.002;2023-03-14T04:56:54;98314.22;;;1.07;79.44
75424;BME280;64005;55.160;36.002;2023-03-14T04:59:22;98321.59;;;1.11;79.76
75424;BME280;64005;55.160;36.002;2023-03-14T05:01:51;98323.16;;;1.17;79.12
75424;BME280;64005;55.160;36.002;2023-03-14T05:04:18;98307.75;;;1.22;78.84
75424;BME280;64005;55.160;36.002;2023-03-14T05:06:46;98282.06;;;1.17;79.13
75424;BME280;64005;55.160;36.002;2023-03-14T05:09:13;98294.88;;;1.22;79.54
75424;BME280;64005;55.160;36.002;2023-03-14T05:11:41;98285.03;;;1.21;79.83
75424;BME280;64005;55.160;36.002;2023-03-14T05:14:09;98282.81;;;1.23;79.59
75424;BME280;64005;55.160;36.002;2023-03-14T05:16:36;98289.13;;;1.24;79.42
75424;BME280;64005;55.160;36.002;2023-03-14T05:19:05;98279.19;;;1.28;79.48
75424;BME280;64005;55.160;36.002;2023-03-14T05:21:32;98277.19;;;1.33;79.55
75424;BME280;64005;55.160;36.002;2023-03-14T05:24:00;98278.47;;;1.41;79.38
75424;BME280;64005;55.160;36.002;2023-03-14T05:26:28;98299.16;;;1.52;79.19
75424;BME280;64005;55.160;36.002;2023-03-14T05:28:55;98279.75;;;1.67;78.69
75424;BME280;64005;55.160;36.002;2023-03-14T05:31:22;98289.69;;;1.82;78.54
75424;BME280;64005;55.160;36.002;2023-03-14T05:33:50;98274.03;;;1.82;78.75
75424;BME280;64005;55.160;36.002;2023-03-14T05:36:19;98283.31;;;1.86;78.49
75424;BME280;64005;55.160;36.002;2023-03-14T05:38:46;98283.31;;;1.86;78.23
75424;BME280;64005;55.160;36.002;2023-03-14T05:41:14;98292.66;;;1.85;78.31
75424;BME280;64005;55.160;36.002;2023-03-14T05:43:41;98301.72;;;1.86;78.22
75424;BME280;64005;55.160;36.002;2023-03-14T05:46:09;98292.88;;;1.89;78.00
75424;BME280;64005;55.160;36.002;2023-03-14T05:48:36;98309.56;;;1.92;77.82
75424;BME280;64005;55.160;36.002;2023-03-14T05:51:04;98314.44;;;1.95;77.51
75424;BME280;64005;55.160;36.002;2023-03-14T05:53:33;98320.75;;;1.96;77.43
75424;BME280;64005;55.160;36.002;2023-03-14T05:56:01;98316.28;;;2.00;77.32
75424;BME280;64005;55.160;36.002;2023-03-14T05:58:28;98325.72;;;2.13;77.23
75424;BME280;64005;55.160;36.002;2023-03-14T06:00:56;98322.38;;;2.16;77.15
75424;BME280;64005;55.160;36.002;2023-03-14T06:03:23;98335.63;;;2.27;76.58
75424;BME280;64005;55.160;36.002;2023-03-14T06:05:50;98342.34;;;2.35;76.38
75424;BME280;64005;55.160;36.002;2023-03-14T06:08:18;98349.41;;;2.41;76.19
75424;BME280;64005;55.160;36.002;2023-03-14T06:10:47;98341.31;;;2.50;75.85
75424;BME280;64005;55.160;36.002;2023-03-14T06:13:14;98329.34;;;2.59;75.45
75424;BME280;64005;55.160;36.002;2023-03-14T06:15:42;98338.31;;;2.65;74.93
75424;BME280;64005;55.160;36.002;2023-03-14T06:18:10;98328.16;;;2.65;75.26
75424;BME280;64005;55.160;36.002;2023-03-14T06:20:38;98330.91;;;2.65;74.83
75424;BME280;64005;55.160;36.002;2023-03-14T06:23:06;98335.75;;;2.68;75.25
75424;BME280;64005;55.160;36.002;2023-03-14T06:25:34;98347.19;;;2.75;74.29
75424;BME280;64005;55.160;36.002;2023-03-14T06:28:03;98348.50;;;2.78;74.40
75424;BME280;64005;55.160;36.002;2023-03-14T06:30:31;98343.22;;;2.82;73.94
75424;BME280;64005;55.160;36.002;2023-03-14T06:32:59;98353.00;;;2.88;73.95
75424;BME280;64005;55.160;36.002;2023-03-14T06:35:26;98354.34;;;2.90;73.69
75424;BME280;64005;55.160;36.002;2023-03-14T06:37:54;98351.78;;;2.94;73.42
75424;BME280;64005;55.160;36.002;2023-03-14T06:40:21;98345.91;;;3.00;73.21
75424;BME280;64005;55.160;36.002;2023-03-14T06:42:49;98334.84;;;3.05;73.29
75424;BME280;64005;55.160;36.002;2023-03-14T06:45:18;98345.22;;;3.08;72.65
75424;BME280;64005;55.160;36.002;2023-03-14T06:47:46;98333.50;;;3.16;72.99
75424;BME280;64005;55.160;36.002;2023-03-14T06:50:13;98333.94;;;3.24;72.67
75424;BME280;64005;55.160;36.002;2023-03-14T06:52:41;98334.44;;;3.26;72.24
75424;BME280;64005;55.160;36.002;2023-03-14T06:55:13;98329.34;;;3.33;71.63
75424;BME280;64005;55.160;36.002;2023-03-14T06:57:41;98330.25;;;3.55;71.81
75424;BME280;64005;55.160;36.002;2023-03-14T07:00:11;98323.50;;;3.75;71.05
75424;BME280;64005;55.160;36.002;2023-03-14T07:02:41;98326.09;;;3.94;69.71
75424;BME280;64005;55.160;36.002;2023-03-14T07:05:08;98317.44;;;4.00;69.97
75424;BME280;64005;55.160;36.002;2023-03-14T07:07:36;98322.50;;;4.07;69.52
75424;BME280;64005;55.160;36.002;2023-03-14T07:10:05;98348.06;;;4.21;69.88
75424;BME280;64005;55.160;36.002;2023-03-14T07:12:59;98333.84;;;4.28;69.56
75424;BME280;64005;55.160;36.002;2023-03-14T07:15:26;98332.59;;;4.12;69.29
75424;BME280;64005;55.160;36.002;2023-03-14T07:20:31;98241.88;;;3.35;69.18
75424;BME280;64005;55.160;36.002;2023-03-14T07:23:27;98338.19;;;4.07;68.77
75424;BME280;64005;55.160;36.002;2023-03-14T07:25:55;98339.94;;;4.16;68.70
75424;BME280;64005;55.160;36.002;2023-03-14T07:28:23;98344.13;;;4.36;67.60
75424;BME280;64005;55.160;36.002;2023-03-14T07:39:04;98339.94;;;4.83;66.18
75424;BME280;64005;55.160;36.002;2023-03-14T08:43:10;98395.22;;;6.36;61.02
75424;BME280;64005;55.160;36.002;2023-03-14T08:45:38;98373.28;;;6.57;60.97
75424;BME280;64005;55.160;36.002;2023-03-14T08:50:41;98352.44;;;6.85;60.40
75424;BME280;64005;55.160;36.002;2023-03-14T08:53:08;98367.06;;;7.03;60.47
75424;BME280;64005;55.160;36.002;2023-03-14T08:55:36;98368.34;;;7.14;59.66
75424;BME280;64005;55.160;36.002;2023-03-14T09:03:20;98364.81;;;6.88;59.49
75424;BME280;64005;55.160;36.002;2023-03-14T10:05:17;98375.13;;;7.25;57.77
75424;BME280;64005;55.160;36.002;2023-03-14T10:07:45;98379.44;;;7.52;57.60
75424;BME280;64005;55.160;36.002;2023-03-14T10:10:19;98374.88;;;7.56;57.23
75424;BME280;64005;55.160;36.002;2023-03-14T11:05:22;98322.19;;;7.44;55.94
75424;BME280;64005;55.160;36.002;2023-03-14T11:36:50;98334.69;;;7.03;57.41
75424;BME280;64005;55.160;36.002;2023-03-14T11:39:20;98323.00;;;6.98;56.85
75424;BME280;64005;55.160;36.002;2023-03-14T12:17:35;98321.63;;;7.59;54.95
75424;BME280;64005;55.160;36.002;2023-03-14T12:20:10;98330.81;;;7.72;54.84
75424;BME280;64005;55.160;36.002;2023-03-14T12:22:56;98338.06;;;7.64;54.71
75424;BME280;64005;55.160;36.002;2023-03-14T12:36:19;98341.38;;;7.49;54.92
75424;BME280;64005;55.160;36.002;2023-03-14T12:54:11;98200.06;;;6.40;54.47
75424;BME280;64005;55.160;36.002;2023-03-14T12:57:15;98331.84;;;7.29;54.29
75424;BME280;64005;55.160;36.002;2023-03-14T13:27:24;98323.31;;;6.96;54.27
75424;BME280;64005;55.160;36.002;2023-03-14T13:48:00;98341.69;;;7.01;53.56
75424;BME280;64005;55.160;36.002;2023-03-14T13:55:52;98316.00;;;7.00;53.13
75424;BME280;64005;55.160;36.002;2023-03-14T13:58:23;98323.00;;;6.98;52.58
75424;BME280;64005;55.160;36.002;2023-03-14T14:01:15;98333.59;;;6.87;52.98
75424;BME280;64005;55.160;36.002;2023-03-14T14:03:58;98335.25;;;6.62;53.33
75424;BME280;64005;55.160;36.002;2023-03-14T14:06:32;98326.66;;;6.38;52.95
75424;BME280;64005;55.160;36.002;2023-03-14T14:09:20;98340.94;;;6.40;53.15
75424;BME280;64005;55.160;36.002;2023-03-14T14:12:10;98340.94;;;6.23;53.36
75424;BME280;64005;55.160;36.002;2023-03-14T14:14:42;98340.44;;;6.12;53.84
75424;BME280;64005;55.160;36.002;2023-03-14T14:17:12;98344.84;;;6.05;54.35
75424;BME280;64005;55.160;36.002;2023-03-14T14:19:45;98351.28;;;6.00;54.42
75424;BME280;64005;55.160;36.002;2023-03-14T14:22:33;98349.34;;;6.01;54.04
75424;BME280;64005;55.160;36.002;2023-03-14T14:28:30;98338.16;;;5.97;54.33
75424;BME280;64005;55.160;36.002;2023-03-14T14:31:04;98345.28;;;6.07;54.75
75424;BME280;64005;55.160;36.002;2023-03-14T14:33:40;98349.72;;;6.16;54.06
75424;BME280;64005;55.160;36.002;2023-03-14T14:38:51;98188.50;;;5.26;53.91
75424;BME280;64005;55.160;36.002;2023-03-14T14:41:31;98186.06;;;5.16;53.92
75424;BME280;64005;55.160;36.002;2023-03-14T14:44:03;98348.38;;;6.05;54.54
75424;BME280;64005;55.160;36.002;2023-03-14T14:46:33;98337.19;;;6.02;55.29
75424;BME280;64005;55.160;36.002;2023-03-14T14:49:05;98336.34;;;5.92;54.63
75424;BME280;64005;55.160;36.002;2023-03-14T14:51:41;98319.22;;;5.73;53.98
75424;BME280;64005;55.160;36.002;2023-03-14T14:54:16;98332.91;;;5.78;54.99
75424;BME280;64005;55.160;36.002;2023-03-14T14:56:50;98344.25;;;5.77;55.04
75424;BME280;64005;55.160;36.002;2023-03-14T14:59:24;98333.81;;;5.65;55.29
75424;BME280;64005;55.160;36.002;2023-03-14T15:01:58;98323.25;;;5.58;54.90
75424;BME280;64005;55.160;36.002;2023-03-14T15:04:26;98340.94;;;5.57;55.28
75424;BME280;64005;55.160;36.002;2023-03-14T15:06:54;98339.94;;;5.53;55.31
75424;BME280;64005;55.160;36.002;2023-03-14T15:09:23;98338.97;;;5.49;55.27
75424;BME280;64005;55.160;36.002;2023-03-14T15:11:51;98343.00;;;5.43;56.17
75424;BME280;64005;55.160;36.002;2023-03-14T15:14:18;98347.03;;;5.37;56.08
75424;BME280;64005;55.160;36.002;2023-03-14T15:16:47;98340.66;;;5.28;55.82
75424;BME280;64005;55.160;36.002;2023-03-14T15:19:20;98339.47;;;5.20;56.01
75424;BME280;64005;55.160;36.002;2023-03-14T15:21:48;98350.16;;;5.13;56.61
75424;BME280;64005;55.160;36.002;2023-03-14T15:24:15;98332.94;;;5.08;56.39
75424;BME280;64005;55.160;36.002;2023-03-14T15:26:44;98338.91;;;5.01;56.35
75424;BME280;64005;55.160;36.002;2023-03-14T15:29:12;98347.31;;;4.96;56.65
75424;BME280;64005;55.160;36.002;2023-03-14T15:31:41;98286.13;;;4.55;57.95
75424;BME280;64005;55.160;36.002;2023-03-14T15:34:09;98339.94;;;4.83;58.01
75424;BME280;64005;55.160;36.002;2023-03-14T15:36:37;98354.47;;;4.75;57.14
75424;BME280;64005;55.160;36.002;2023-03-14T15:39:06;98357.06;;;4.71;57.67
75424;BME280;64005;55.160;36.002;2023-03-14T15:41:34;98349.69;;;4.67;57.77
75424;BME280;64005;55.160;36.002;2023-03-14T15:44:05;98260.28;;;3.97;57.89
75424;BME280;64005;55.160;36.002;2023-03-14T15:46:32;98360.34;;;4.60;58.45
75424;BME280;64005;55.160;36.002;2023-03-14T15:49:00;98357.41;;;4.56;57.83
75424;BME280;64005;55.160;36.002;2023-03-14T15:51:27;98361.72;;;4.49;59.00
75424;BME280;64005;55.160;36.002;2023-03-14T15:53:55;98380.19;;;4.48;58.04
75424;BME280;64005;55.160;36.002;2023-03-14T15:56:22;98374.50;;;4.45;59.19
75424;BME280;64005;55.160;36.002;2023-03-14T15:58:52;98377.25;;;4.45;58.20
75424;BME280;64005;55.160;36.002;2023-03-14T16:01:21;98374.50;;;4.45;58.91
75424;BME280;64005;55.160;36.002;2023-03-14T16:03:48;98373.34;;;4.46;58.86
75424;BME280;64005;55.160;36.002;2023-03-14T16:06:18;98365.44;;;4.44;58.64
75424;BME280;64005;55.160;36.002;2023-03-14T16:08:46;98366.03;;;4.41;58.75
75424;BME280;64005;55.160;36.002;2023-03-14T16:11:15;98365.91;;;4.46;58.93
75424;BME280;64005;55.160;36.002;2023-03-14T16:13:43;98380.19;;;4.48;58.36
75424;BME280;64005;55.160;36.002;2023-03-14T16:16:11;98367.53;;;4.47;59.32
75424;BME280;64005;55.160;36.002;2023-03-14T16:18:40;98367.53;;;4.47;58.60
75424;BME280;64005;55.160;36.002;2023-03-14T16:21:12;98361.66;;;4.40;58.80
75424;BME280;64005;55.160;36.002;2023-03-14T16:23:40;98363.16;;;4.46;58.62
75424;BME280;64005;55.160;36.002;2023-03-14T16:26:09;98359.41;;;4.42;58.83
75424;BME280;64005;55.160;36.002;2023-03-14T16:28:38;98360.59;;;4.50;59.08
75424;BME280;64005;55.160;36.002;2023-03-14T16:31:07;98340.13;;;4.42;59.12
75424;BME280;64005;55.160;36.002;2023-03-14T16:33:35;98343.41;;;4.44;59.96
75424;BME280;64005;55.160;36.002;2023-03-14T16:36:06;98341.94;;;4.24;60.05
75424;BME280;64005;55.160;36.002;2023-03-14T16:38:35;98345.25;;;4.35;59.23
75424;BME280;64005;55.160;36.002;2023-03-14T16:41:05;98343.44;;;4.30;60.01
75424;BME280;64005;55.160;36.002;2023-03-14T16:43:33;98368.09;;;4.35;59.68
75424;BME280;64005;55.160;36.002;2023-03-14T16:46:03;98371.97;;;4.34;59.82
75424;BME280;64005;55.160;36.002;2023-03-14T16:48:31;98368.72;;;4.32;59.34
75424;BME280;64005;55.160;36.002;2023-03-14T16:50:58;98358.03;;;4.31;59.87
75424;BME280;64005;55.160;36.002;2023-03-14T16:53:27;98371.78;;;4.31;60.31
75424;BME280;64005;55.160;36.002;2023-03-14T16:55:55;98363.84;;;4.29;60.40
75424;BME280;64005;55.160;36.002;2023-03-14T16:58:23;98369.13;;;4.26;59.93
75424;BME280;64005;55.160;36.002;2023-03-14T17:00:51;98378.84;;;4.23;60.55
75424;BME280;64005;55.160;36.002;2023-03-14T17:03:18;98366.81;;;4.19;60.77
75424;BME280;64005;55.160;36.002;2023-03-14T17:05:47;98372.31;;;4.19;60.28
75424;BME280;64005;55.160;36.002;2023-03-14T17:08:16;98363.19;;;4.10;60.27
75424;BME280;64005;55.160;36.002;2023-03-14T17:10:46;98376.13;;;4.10;60.26
75424;BME280;64005;55.160;36.002;2023-03-14T17:13:14;98386.94;;;4.06;60.39
75424;BME280;64005;55.160;36.002;2023-03-14T17:15:44;98384.28;;;4.01;60.43
75424;BME280;64005;55.160;36.002;2023-03-14T17:18:12;98365.66;;;3.98;60.81
75424;BME280;64005;55.160;36.002;2023-03-14T17:20:40;98377.16;;;4.00;60.83
75424;BME280;64005;55.160;36.002;2023-03-14T17:23:08;98369.41;;;4.02;60.62
75424;BME280;64005;55.160;36.002;2023-03-14T17:25:35;98367.88;;;4.10;60.19
75424;BME280;64005;55.160;36.002;2023-03-14T17:28:05;98365.72;;;4.07;60.56
75424;BME280;64005;55.160;36.002;2023-03-14T17:30:33;98373.94;;;4.20;60.47
75424;BME280;64005;55.160;36.002;2023-03-14T17:33:00;98361.22;;;4.24;60.69
75424;BME280;64005;55.160;36.002;2023-03-14T17:35:28;98370.16;;;4.30;60.20
75424;BME280;64005;55.160;36.002;2023-03-14T17:37:55;98365.16;;;4.32;60.69
75424;BME280;64005;55.160;36.002;2023-03-14T17:40:23;98358.72;;;4.36;60.12
75424;BME280;64005;55.160;36.002;2023-03-14T17:42:50;98350.47;;;4.36;60.14
75424;BME280;64005;55.160;36.002;2023-03-14T17:45:20;98367.66;;;4.42;59.96
75424;BME280;64005;55.160;36.002;2023-03-14T17:47:47;98359.59;;;4.46;59.61
75424;BME280;64005;55.160;36.002;2023-03-14T17:50:15;98367.53;;;4.47;59.45
75424;BME280;64005;55.160;36.002;2023-03-14T17:52:42;98357.84;;;4.50;59.32
75424;BME280;64005;55.160;36.002;2023-03-14T17:55:10;98362.03;;;4.47;59.94
75424;BME280;64005;55.160;36.002;2023-03-14T17:57:40;98372.13;;;4.52;59.24
75424;BME280;64005;55.160;36.002;2023-03-14T18:00:10;98364.47;;;4.49;59.33
75424;BME280;64005;55.160;36.002;2023-03-14T18:02:40;98374.69;;;4.48;59.12
75424;BME280;64005;55.160;36.002;2023-03-14T18:05:08;98384.19;;;4.42;59.96
75424;BME280;64005;55.160;36.002;2023-03-14T18:07:36;98385.31;;;4.41;59.22
75424;BME280;64005;55.160;36.002;2023-03-14T18:10:05;98358.34;;;4.29;59.76
75424;BME280;64005;55.160;36.002;2023-03-14T18:12:35;98371.66;;;4.36;59.23
75424;BME280;64005;55.160;36.002;2023-03-14T18:15:03;98370.84;;;4.35;59.22
75424;BME280;64005;55.160;36.002;2023-03-14T18:17:31;98355.75;;;4.33;59.58
75424;BME280;64005;55.160;36.002;2023-03-14T18:20:00;98356.91;;;4.32;59.47
75424;BME280;64005;55.160;36.002;2023-03-14T18:22:34;98355.31;;;4.17;59.62
75424;BME280;64005;55.160;36.002;2023-03-14T18:25:01;98361.22;;;4.24;59.48
75424;BME280;64005;55.160;36.002;2023-03-14T18:27:30;98368.44;;;4.20;59.40
75424;BME280;64005;55.160;36.002;2023-03-14T18:29:57;98359.50;;;4.15;59.84
75424;BME280;64005;55.160;36.002;2023-03-14T18:32:25;98357.97;;;4.09;59.54
75424;BME280;64005;55.160;36.002;2023-03-14T18:34:52;98365.53;;;4.03;60.06
75424;BME280;64005;55.160;36.002;2023-03-14T18:37:21;98376.16;;;3.96;60.09
75424;BME280;64005;55.160;36.002;2023-03-14T18:39:49;98375.94;;;3.92;60.11
75424;BME280;64005;55.160;36.002;2023-03-14T18:42:17;98371.38;;;3.88;60.43
75424;BME280;64005;55.160;36.002;2023-03-14T18:44:44;98370.06;;;3.85;59.82
75424;BME280;64005;55.160;36.002;2023-03-14T18:47:12;98373.94;;;3.84;60.19
75424;BME280;64005;55.160;36.002;2023-03-14T18:49:39;98373.53;;;3.77;59.96
75424;BME280;64005;55.160;36.002;2023-03-14T18:52:07;98383.00;;;3.85;60.19